createdAt,value
2022-09-28T00:01:01.503Z,7.01
2022-09-28T00:03:29.454Z,7.01
2022-09-28T00:06:02.952Z,7.07
2022-09-28T00:08:30.843Z,7.09
2022-09-28T00:10:59.212Z,7.04
2022-09-28T00:13:28.215Z,7.08
2022-09-28T00:16:06.351Z,7.14
2022-09-28T00:18:36.125Z,7.21
2022-09-28T00:21:06.482Z,7.24
2022-09-28T00:23:34.777Z,7.25
2022-09-28T00:26:03.929Z,7.31
2022-09-28T00:28:32.183Z,7.32
2022-09-28T00:31:00.979Z,7.32
2022-09-28T00:33:30.205Z,7.34
2022-09-28T00:35:58.790Z,7.28
2022-09-28T00:38:29.984Z,7.31
2022-09-28T00:40:57.960Z,7.36
2022-09-28T00:43:26.456Z,7.40
2022-09-28T00:46:00.297Z,7.43
2022-09-28T00:48:32.120Z,7.46
2022-09-28T00:51:03.799Z,7.45
2022-09-28T00:53:35.017Z,7.43
2022-09-28T00:56:07.527Z,7.44
2022-09-28T00:58:40.819Z,7.42
2022-09-28T01:01:08.899Z,7.38
2022-09-28T01:03:41.317Z,7.31
2022-09-28T01:06:10.504Z,7.20
2022-09-28T01:08:40.543Z,7.30
2022-09-28T01:11:08.626Z,7.17
2022-09-28T01:13:37.427Z,7.10
2022-09-28T01:16:14.219Z,7.13
2022-09-28T01:18:53.933Z,7.16
2022-09-28T01:21:23.415Z,7.14
2022-09-28T01:24:22.232Z,7.16
2022-09-28T01:26:59.456Z,7.09
2022-09-28T01:29:37.147Z,7.11
2022-09-28T01:32:15.423Z,7.11
2022-09-28T01:34:49.267Z,7.12
2022-09-28T01:37:20.992Z,7.12
2022-09-28T01:39:51.126Z,7.09
2022-09-28T01:42:24.591Z,7.16
2022-09-28T01:44:56.696Z,7.22
2022-09-28T01:47:28.239Z,7.10
2022-09-28T01:50:02.145Z,7.14
2022-09-28T01:52:36.469Z,7.09
2022-09-28T01:55:10.772Z,7.09
2022-09-28T01:57:44.337Z,7.14
2022-09-28T02:00:15.129Z,7.08
2022-09-28T02:02:48.764Z,7.11
2022-09-28T02:05:19.334Z,7.13
2022-09-28T02:07:54.837Z,7.14
2022-09-28T02:10:26.338Z,7.14
2022-09-28T02:13:00.232Z,7.21
2022-09-28T02:15:34.908Z,7.20
2022-09-28T02:18:03.186Z,7.24
2022-09-28T02:20:35.612Z,7.18
2022-09-28T02:23:05.751Z,7.19
2022-09-28T02:25:39.466Z,7.24
2022-09-28T02:28:11.787Z,7.15
2022-09-28T02:30:41.601Z,7.14
2022-09-28T02:33:14.605Z,7.20
2022-09-28T02:35:43.897Z,7.25
2022-09-28T02:38:12.668Z,7.21
2022-09-28T02:40:41.157Z,7.21
2022-09-28T02:43:21.691Z,7.25
2022-09-28T02:46:02.121Z,7.25
2022-09-28T02:48:52.251Z,7.25
2022-09-28T02:51:37.376Z,7.28
2022-09-28T02:54:19.003Z,7.30
2022-09-28T02:57:17.470Z,7.26
2022-09-28T02:59:51.348Z,7.23
2022-09-28T03:02:29.214Z,7.26
2022-09-28T03:05:15.276Z,7.29
2022-09-28T03:07:49.486Z,7.31
2022-09-28T03:10:25.133Z,7.35
2022-09-28T03:12:55.216Z,7.33
2022-09-28T03:15:26.740Z,7.33
2022-09-28T03:17:54.744Z,7.32
2022-09-28T03:20:22.557Z,7.32
2022-09-28T03:23:12.454Z,7.31
2022-09-28T03:25:38.256Z,7.36
2022-09-28T03:28:06.064Z,7.35
2022-09-28T03:30:35.289Z,7.42
2022-09-28T03:33:03.238Z,7.38
2022-09-28T03:35:31.068Z,7.36
2022-09-28T03:37:58.934Z,7.49
2022-09-28T03:40:27.101Z,7.42
2022-09-28T03:42:55.099Z,7.35
2022-09-28T03:45:22.968Z,7.45
2022-09-28T03:47:52.254Z,7.42
2022-09-28T03:50:20.115Z,7.38
2022-09-28T03:52:47.937Z,7.46
2022-09-28T03:55:15.802Z,7.44
2022-09-28T03:57:43.775Z,7.47
2022-09-28T04:00:12.883Z,7.47
2022-09-28T04:02:40.719Z,7.47
2022-09-28T04:05:10.383Z,7.53
2022-09-28T04:07:38.240Z,7.55
2022-09-28T04:10:06.856Z,7.49
2022-09-28T04:12:34.685Z,7.47
2022-09-28T04:15:02.577Z,7.56
2022-09-28T04:17:30.991Z,7.67
2022-09-28T04:19:59.205Z,7.63
2022-09-28T04:22:28.380Z,7.65
2022-09-28T04:24:56.141Z,7.69
2022-09-28T04:27:41.448Z,7.66
2022-09-28T04:30:10.885Z,7.63
2022-09-28T04:32:38.732Z,7.73
2022-09-28T04:35:07.567Z,7.77
2022-09-28T04:37:36.706Z,7.85
2022-09-28T04:40:05.099Z,7.79
2022-09-28T04:42:32.879Z,7.92
2022-09-28T04:45:01.055Z,7.93
2022-09-28T04:47:30.715Z,7.87
2022-09-28T04:49:58.522Z,7.88
2022-09-28T04:52:27.096Z,7.92
2022-09-28T04:54:56.242Z,7.93
2022-09-28T04:57:24.043Z,7.94
2022-09-28T04:59:51.824Z,7.92
2022-09-28T05:02:20.480Z,7.91
2022-09-28T05:04:48.316Z,7.91
2022-09-28T05:07:16.118Z,7.85
2022-09-28T05:09:43.912Z,7.91
2022-09-28T05:12:13.127Z,7.99
2022-09-28T05:14:41.320Z,7.97
2022-09-28T05:17:10.498Z,7.94
2022-09-28T05:19:38.353Z,7.99
2022-09-28T05:22:08.436Z,7.95
2022-09-28T05:24:36.218Z,7.92
2022-09-28T05:27:04.368Z,7.90
2022-09-28T05:29:33.553Z,7.84
2022-09-28T05:32:02.360Z,7.92
2022-09-28T05:34:30.541Z,7.90
2022-09-28T05:36:58.420Z,7.85
2022-09-28T05:39:26.189Z,7.78
2022-09-28T05:41:53.976Z,7.77
2022-09-28T05:44:23.242Z,7.81
2022-09-28T05:46:54.833Z,7.75
2022-09-28T05:49:22.678Z,7.81
2022-09-28T05:51:50.492Z,7.80
2022-09-28T05:54:18.420Z,7.75
2022-09-28T05:56:46.310Z,7.79
2022-09-28T05:59:14.071Z,7.82
2022-09-28T06:01:41.900Z,7.83
2022-09-28T06:04:11.155Z,7.79
2022-09-28T06:06:39.452Z,7.82
2022-09-28T06:09:07.214Z,7.80
2022-09-28T06:11:35.041Z,7.75
2022-09-28T06:14:02.832Z,7.73
2022-09-28T06:16:30.780Z,7.64
2022-09-28T06:18:58.656Z,7.63
2022-09-28T06:21:27.892Z,7.67
2022-09-28T06:23:55.698Z,7.62
2022-09-28T06:26:23.465Z,7.63
2022-09-28T06:28:51.456Z,7.72
2022-09-28T06:31:19.891Z,7.66
2022-09-28T06:33:49.531Z,7.74
2022-09-28T06:36:17.736Z,7.75
2022-09-28T06:38:47.200Z,7.78
2022-09-28T06:41:15.495Z,7.79
2022-09-28T06:43:43.424Z,7.90
2022-09-28T06:46:11.560Z,7.92
2022-09-28T06:48:39.374Z,8.03
2022-09-28T06:51:07.725Z,8.23
2022-09-28T06:53:35.853Z,8.11
2022-09-28T06:56:06.595Z,8.03
2022-09-28T06:58:34.380Z,8.04
2022-09-28T07:01:02.303Z,8.22
2022-09-28T07:03:30.229Z,8.32
2022-09-28T07:05:58.407Z,8.43
2022-09-28T07:08:28.808Z,8.43
2022-09-28T07:10:57.355Z,8.44
2022-09-28T07:16:16.425Z,8.24
2022-09-28T07:18:44.264Z,8.28
2022-09-28T07:21:22.628Z,8.34
2022-09-28T07:23:54.884Z,8.25
2022-09-28T07:26:24.589Z,8.22
2022-09-28T07:28:56.094Z,8.13
2022-09-28T07:31:25.542Z,8.23
2022-09-28T07:33:53.937Z,8.26
2022-09-28T07:36:22.845Z,8.38
2022-09-28T07:38:50.955Z,8.52
2022-09-28T07:41:22.470Z,8.53
2022-09-28T07:43:50.932Z,8.50
2022-09-28T07:46:21.345Z,8.53
2022-09-28T07:48:51.758Z,8.65
2022-09-28T07:51:21.265Z,8.85
2022-09-28T07:53:49.199Z,9.10
2022-09-28T07:56:18.269Z,9.58
2022-09-28T07:58:48.160Z,9.86
2022-09-28T08:01:16.639Z,9.87
2022-09-28T08:03:48.000Z,9.89
2022-09-28T08:06:17.697Z,10.06
2022-09-28T08:08:45.774Z,10.28
2022-09-28T08:11:14.749Z,10.20
2022-09-28T08:13:44.000Z,9.90
2022-09-28T08:16:11.892Z,10.07
2022-09-28T08:18:39.817Z,10.18
2022-09-28T08:21:28.124Z,10.66
2022-09-28T08:23:55.989Z,11.01
2022-09-28T08:26:23.820Z,11.12
2022-09-28T08:28:51.799Z,11.82
2022-09-28T08:31:19.590Z,12.09
2022-09-28T08:33:49.597Z,11.92
2022-09-28T08:36:18.820Z,10.97
2022-09-28T08:38:46.677Z,10.70
2022-09-28T08:41:20.165Z,11.13
2022-09-28T08:44:04.011Z,11.54
2022-09-28T08:46:36.487Z,11.01
2022-09-28T08:49:26.276Z,11.41
2022-09-28T08:52:00.702Z,11.93
2022-09-28T08:54:37.580Z,11.55
2022-09-28T08:57:11.153Z,11.45
2022-09-28T08:59:47.969Z,11.30
2022-09-28T09:02:19.675Z,10.90
2022-09-28T09:04:47.628Z,10.67
2022-09-28T09:07:39.983Z,10.66
2022-09-28T09:10:18.764Z,10.73
2022-09-28T09:13:00.768Z,10.50
2022-09-28T09:15:43.426Z,11.11
2022-09-28T09:18:23.237Z,11.39
2022-09-28T09:20:56.829Z,11.43
2022-09-28T09:23:37.305Z,11.40
2022-09-28T09:26:18.851Z,10.88
2022-09-28T09:29:07.447Z,11.22
2022-09-28T09:31:53.075Z,11.58
2022-09-28T09:34:39.745Z,11.26
2022-09-28T09:37:22.391Z,11.34
2022-09-28T09:40:03.058Z,11.10
2022-09-28T09:42:46.172Z,10.89
2022-09-28T09:45:41.044Z,11.20
2022-09-28T09:48:14.629Z,11.32
2022-09-28T09:50:48.616Z,10.51
2022-09-28T09:53:24.093Z,10.86
2022-09-28T09:55:57.408Z,10.45
2022-09-28T09:58:29.772Z,10.47
2022-09-28T10:01:08.155Z,10.46
2022-09-28T10:03:40.895Z,10.44
2022-09-28T10:06:13.260Z,10.37
2022-09-28T10:08:47.515Z,10.68
2022-09-28T10:11:22.163Z,10.91
2022-09-28T10:13:50.288Z,11.14
2022-09-28T10:16:19.709Z,11.26
2022-09-28T10:18:49.599Z,11.00
2022-09-28T10:21:19.624Z,10.93
2022-09-28T10:23:51.246Z,10.94
2022-09-28T10:26:26.374Z,11.06
2022-09-28T10:28:59.244Z,11.30
2022-09-28T10:31:41.910Z,11.26
2022-09-28T10:34:14.215Z,11.71
2022-09-28T10:36:52.563Z,12.84
2022-09-28T10:39:31.142Z,13.98
2022-09-28T10:42:04.312Z,13.81
2022-09-28T10:44:34.711Z,13.18
2022-09-28T10:47:04.980Z,13.11
2022-09-28T10:49:44.374Z,12.98
2022-09-28T10:52:33.653Z,13.47
2022-09-28T10:55:02.361Z,13.29
2022-09-28T10:57:36.674Z,14.26
2022-09-28T11:00:06.959Z,15.46
2022-09-28T11:02:37.698Z,14.51
2022-09-28T11:05:07.917Z,13.90
2022-09-28T11:07:46.848Z,14.22
2022-09-28T11:10:22.089Z,13.15
2022-09-28T11:12:52.556Z,12.37
2022-09-28T11:15:22.398Z,12.08
2022-09-28T11:17:50.219Z,11.63
2022-09-28T11:20:34.654Z,11.49
2022-09-28T11:23:20.394Z,11.76
2022-09-28T11:26:01.075Z,11.43
2022-09-28T11:28:33.612Z,11.38
2022-09-28T11:31:03.655Z,11.70
2022-09-28T11:33:34.035Z,11.70
2022-09-28T11:36:29.169Z,12.28
2022-09-28T11:39:09.858Z,12.27
2022-09-28T11:41:53.406Z,12.91
2022-09-28T11:44:41.377Z,13.81
2022-09-28T11:47:24.083Z,15.14
2022-09-28T11:49:58.945Z,14.67
2022-09-28T11:52:31.924Z,14.33
2022-09-28T11:55:06.307Z,14.88
2022-09-28T11:57:38.873Z,14.81
2022-09-28T12:00:14.954Z,14.08
2022-09-28T12:02:48.906Z,14.02
2022-09-28T12:05:23.998Z,13.82
2022-09-28T12:07:55.741Z,13.33
2022-09-28T12:10:37.058Z,13.15
2022-09-28T12:13:10.190Z,13.28
2022-09-28T12:16:17.131Z,13.64
2022-09-28T12:18:42.916Z,14.02
2022-09-28T12:21:23.550Z,14.11
2022-09-28T12:23:52.673Z,15.50
2022-09-28T12:26:33.432Z,15.00
2022-09-28T12:29:11.380Z,16.06
2022-09-28T12:31:57.099Z,17.48
2022-09-28T12:34:24.984Z,17.99
2022-09-28T12:37:08.733Z,17.80
2022-09-28T12:39:57.434Z,19.15
2022-09-28T12:42:53.087Z,19.16
2022-09-28T12:45:42.898Z,17.91
2022-09-28T12:48:52.923Z,17.83
2022-09-28T12:51:45.048Z,17.68
2022-09-28T12:54:30.534Z,18.11
2022-09-28T12:57:08.872Z,18.10
2022-09-28T12:59:40.817Z,19.48
2022-09-28T13:02:37.004Z,18.50
2022-09-28T13:05:31.564Z,17.93
2022-09-28T13:08:06.073Z,17.41
2022-09-28T13:10:42.191Z,16.05
2022-09-28T13:13:29.503Z,16.80
2022-09-28T13:16:07.709Z,15.89
2022-09-28T13:18:43.885Z,15.56
2022-09-28T13:21:23.599Z,15.82
2022-09-28T13:24:00.800Z,16.45
2022-09-28T13:26:39.548Z,16.28
2022-09-28T13:29:14.250Z,16.70
2022-09-28T13:31:47.054Z,17.06
2022-09-28T13:34:20.800Z,17.91
2022-09-28T13:37:11.231Z,16.43
2022-09-28T13:39:59.001Z,16.82
2022-09-28T13:42:56.275Z,16.73
2022-09-28T13:45:50.732Z,16.75
2022-09-28T13:48:22.216Z,17.22
2022-09-28T13:51:15.909Z,19.56
2022-09-28T13:54:41.490Z,19.71
2022-09-28T13:57:19.739Z,20.36
2022-09-28T14:00:02.629Z,19.20
2022-09-28T14:02:37.726Z,20.37
2022-09-28T14:05:07.296Z,18.87
2022-09-28T14:08:25.980Z,20.69
2022-09-28T14:10:56.446Z,20.51
2022-09-28T14:13:59.223Z,20.72
2022-09-28T14:16:28.459Z,18.72
2022-09-28T14:19:00.354Z,18.47
2022-09-28T14:21:59.243Z,18.91
2022-09-28T14:24:40.846Z,17.28
2022-09-28T14:27:44.829Z,16.08
2022-09-28T14:30:23.447Z,15.63
2022-09-28T14:32:56.203Z,14.96
2022-09-28T14:35:34.270Z,14.71
2022-09-28T14:38:24.870Z,14.55
2022-09-28T14:41:10.603Z,14.22
2022-09-28T14:43:59.867Z,13.71
2022-09-28T14:46:30.200Z,13.74
2022-09-28T14:49:03.395Z,13.67
2022-09-28T14:52:03.723Z,13.34
2022-09-28T14:54:43.349Z,13.59
2022-09-28T14:57:18.907Z,13.92
2022-09-28T14:59:48.231Z,13.70
2022-09-28T15:02:25.037Z,14.63
2022-09-28T15:04:55.913Z,13.78
2022-09-28T15:07:26.960Z,13.69
2022-09-28T15:09:56.245Z,13.45
2022-09-28T15:12:28.116Z,13.85
2022-09-28T15:14:59.376Z,13.60
2022-09-28T15:17:30.563Z,13.85
2022-09-28T15:20:21.872Z,13.63
2022-09-28T15:22:52.025Z,13.57
2022-09-28T15:25:21.429Z,13.23
2022-09-28T15:27:54.626Z,12.97
2022-09-28T15:30:27.951Z,13.35
2022-09-28T15:33:17.622Z,13.24
2022-09-28T15:35:47.753Z,13.27
2022-09-28T15:38:18.314Z,13.01
2022-09-28T15:40:47.889Z,13.15
2022-09-28T15:43:26.917Z,13.17
2022-09-28T15:46:02.810Z,13.04
2022-09-28T15:48:32.815Z,12.92
2022-09-28T15:51:10.285Z,12.84
2022-09-28T15:53:43.277Z,12.84
2022-09-28T15:56:12.102Z,12.77
2022-09-28T15:58:40.528Z,12.82
2022-09-28T16:01:40.641Z,12.96
2022-09-28T16:04:40.753Z,12.63
2022-09-28T16:07:25.350Z,12.66
2022-09-28T16:10:06.274Z,12.72
2022-09-28T16:12:46.555Z,13.05
2022-09-28T16:15:20.420Z,13.94
2022-09-28T16:17:56.063Z,14.35
2022-09-28T16:20:29.952Z,14.75
2022-09-28T16:23:05.741Z,15.12
2022-09-28T16:25:37.509Z,15.04
2022-09-28T16:28:06.809Z,14.12
2022-09-28T16:30:35.828Z,13.59
2022-09-28T16:33:06.785Z,13.57
2022-09-28T16:35:51.556Z,13.85
2022-09-28T16:38:21.112Z,13.88
2022-09-28T16:40:50.708Z,13.52
2022-09-28T16:43:26.872Z,13.36
2022-09-28T16:45:57.613Z,12.98
2022-09-28T16:48:29.142Z,12.47
2022-09-28T16:50:57.857Z,11.99
2022-09-28T16:53:44.390Z,11.87
2022-09-28T16:56:13.850Z,11.59
2022-09-28T16:58:42.553Z,11.42
2022-09-28T17:01:12.680Z,11.17
2022-09-28T17:03:46.703Z,11.18
2022-09-28T17:06:19.893Z,11.09
2022-09-28T17:08:48.255Z,10.90
2022-09-28T17:11:23.734Z,10.84
2022-09-28T17:13:52.355Z,10.68
2022-09-28T17:16:37.282Z,10.52
2022-09-28T17:19:19.830Z,10.38
2022-09-28T17:21:51.003Z,10.25
2022-09-28T17:24:20.191Z,10.09
2022-09-28T17:26:52.250Z,9.99
2022-09-28T17:29:21.615Z,9.90
2022-09-28T17:31:49.986Z,9.85
2022-09-28T17:34:19.913Z,9.78
2022-09-28T17:36:48.513Z,9.82
2022-09-28T17:39:18.519Z,9.71
2022-09-28T17:41:46.663Z,9.60
2022-09-28T17:44:16.366Z,9.53
2022-09-28T17:46:47.724Z,9.42
2022-09-28T17:49:16.393Z,9.45
2022-09-28T17:51:45.661Z,9.35
2022-09-28T17:54:20.001Z,9.22
2022-09-28T17:56:48.175Z,9.27
2022-09-28T17:59:18.893Z,9.20
2022-09-28T18:01:48.451Z,9.07
2022-09-28T18:04:39.566Z,8.99
2022-09-28T18:07:06.581Z,8.87
2022-09-28T18:09:34.416Z,8.79
2022-09-28T18:12:06.527Z,8.74
2022-09-28T18:14:35.811Z,8.73
2022-09-28T18:17:04.053Z,8.76
2022-09-28T18:19:32.599Z,8.60
2022-09-28T18:22:01.586Z,8.50
2022-09-28T18:24:32.561Z,8.50
2022-09-28T18:27:00.797Z,8.42
2022-09-28T18:29:32.896Z,8.41
2022-09-28T18:32:01.336Z,8.41
2022-09-28T18:34:29.190Z,8.34
2022-09-28T18:36:57.416Z,8.41
2022-09-28T18:39:26.681Z,8.38
2022-09-28T18:41:55.976Z,8.36
2022-09-28T18:44:24.093Z,8.33
2022-09-28T18:46:51.937Z,8.34
2022-09-28T18:49:19.896Z,8.21
2022-09-28T18:51:47.988Z,8.21
2022-09-28T18:54:16.139Z,8.26
2022-09-28T18:56:44.250Z,8.20
2022-09-28T18:59:14.153Z,8.14
2022-09-28T19:01:43.424Z,8.03
2022-09-28T19:04:13.644Z,8.13
2022-09-28T19:06:44.557Z,7.99
2022-09-28T19:09:13.256Z,7.99
2022-09-28T19:11:41.224Z,7.98
2022-09-28T19:14:11.214Z,7.89
2022-09-28T19:16:40.431Z,7.92
2022-09-28T19:19:08.946Z,7.83
2022-09-28T19:21:36.965Z,7.74
2022-09-28T19:24:05.534Z,7.67
2022-09-28T19:26:34.172Z,7.67
2022-09-28T19:29:02.855Z,7.80
2022-09-28T19:31:31.519Z,7.77
2022-09-28T19:34:00.983Z,7.73
2022-09-28T19:36:29.898Z,7.63
2022-09-28T19:39:02.863Z,7.63
2022-09-28T19:41:44.464Z,7.60
2022-09-28T19:44:15.833Z,7.60
2022-09-28T19:46:44.047Z,7.66
2022-09-28T19:49:19.373Z,7.67
2022-09-28T19:52:11.586Z,7.70
2022-09-28T19:54:37.691Z,7.70
2022-09-28T19:57:07.900Z,7.63
2022-09-28T19:59:36.779Z,7.58
2022-09-28T20:02:04.962Z,7.62
2022-09-28T20:04:34.196Z,7.57
2022-09-28T20:07:02.971Z,7.61
2022-09-28T20:09:30.865Z,7.52
2022-09-28T20:11:58.779Z,7.50
2022-09-28T20:14:32.155Z,7.58
2022-09-28T20:17:04.993Z,7.58
2022-09-28T20:19:35.095Z,7.51
2022-09-28T20:22:03.547Z,7.36
2022-09-28T20:24:32.602Z,7.27
2022-09-28T20:27:01.358Z,7.36
2022-09-28T20:29:31.661Z,7.29
2022-09-28T20:32:00.470Z,7.26
2022-09-28T20:34:28.616Z,7.38
2022-09-28T20:36:57.900Z,7.26
2022-09-28T20:39:25.997Z,7.31
2022-09-28T20:41:55.877Z,7.22
2022-09-28T20:44:23.872Z,7.11
2022-09-28T20:46:52.514Z,7.02
2022-09-28T20:49:20.408Z,7.02
2022-09-28T20:51:48.471Z,6.95
2022-09-28T20:54:17.750Z,7.03
2022-09-28T20:56:48.128Z,6.93
2022-09-28T20:59:16.384Z,6.89
2022-09-28T21:01:44.524Z,6.89
2022-09-28T21:04:12.978Z,6.87
2022-09-28T21:06:43.010Z,6.84
2022-09-28T21:09:12.437Z,6.79
2022-09-28T21:11:41.835Z,6.75
2022-09-28T21:14:10.796Z,6.80
2022-09-28T21:16:39.461Z,6.73
2022-09-28T21:19:07.617Z,6.73
2022-09-28T21:21:35.484Z,6.67
2022-09-28T21:24:03.651Z,6.69
2022-09-28T21:26:32.304Z,6.64
2022-09-28T21:29:02.832Z,6.55
2022-09-28T21:31:32.880Z,6.58
2022-09-28T21:34:01.187Z,6.50
2022-09-28T21:36:29.068Z,6.48
2022-09-28T21:38:56.936Z,6.59
2022-09-28T21:41:25.223Z,6.46
2022-09-28T21:43:53.653Z,6.42
2022-09-28T21:46:23.013Z,6.41
2022-09-28T21:48:53.760Z,6.46
2022-09-28T21:51:22.145Z,6.36
2022-09-28T21:53:50.317Z,6.37
2022-09-28T21:56:18.878Z,6.35
2022-09-28T21:58:47.255Z,6.34
2022-09-28T22:01:19.839Z,6.25
2022-09-28T22:03:51.717Z,6.15
2022-09-28T22:06:21.380Z,6.08
2022-09-28T22:08:50.354Z,6.12
2022-09-28T22:11:20.470Z,6.16
2022-09-28T22:13:50.086Z,6.12
2022-09-28T22:16:20.191Z,6.16
2022-09-28T22:18:49.711Z,6.07
2022-09-28T22:21:19.854Z,6.00
2022-09-28T22:23:48.403Z,6.11
2022-09-28T22:26:19.592Z,6.10
2022-09-28T22:28:49.489Z,6.19
2022-09-28T22:31:18.935Z,6.33
2022-09-28T22:33:46.872Z,6.35
2022-09-28T22:36:17.150Z,6.38
2022-09-28T22:38:45.561Z,6.42
2022-09-28T22:41:15.925Z,6.42
2022-09-28T22:43:44.272Z,6.43
2022-09-28T22:46:14.027Z,6.32
2022-09-28T22:48:43.334Z,6.39
2022-09-28T22:51:11.344Z,6.35
2022-09-28T22:53:40.513Z,6.33
2022-09-28T22:56:08.979Z,6.37
2022-09-28T22:58:38.377Z,6.35
2022-09-28T23:01:07.771Z,6.34
2022-09-28T23:03:35.987Z,6.38
2022-09-28T23:06:04.469Z,6.40
2022-09-28T23:08:33.014Z,6.31
2022-09-28T23:11:02.627Z,6.24
2022-09-28T23:13:31.204Z,6.18
2022-09-28T23:16:00.175Z,6.14
2022-09-28T23:18:29.781Z,6.08
2022-09-28T23:20:59.175Z,6.04
2022-09-28T23:23:27.125Z,6.03
2022-09-28T23:25:55.526Z,6.00
2022-09-28T23:28:26.491Z,6.01
2022-09-28T23:30:55.168Z,6.01
2022-09-28T23:33:23.708Z,6.08
2022-09-28T23:35:51.702Z,6.05
2022-09-28T23:38:19.651Z,6.03
2022-09-28T23:40:47.732Z,5.89
2022-09-28T23:43:16.030Z,5.93
2022-09-28T23:45:45.733Z,5.82
2022-09-28T23:48:14.986Z,5.82
2022-09-28T23:50:43.125Z,5.81
2022-09-28T23:53:11.017Z,5.82
2022-09-28T23:55:38.898Z,5.80
2022-09-28T23:58:06.864Z,5.68
